You are here: Home > Analyse > Internet Measurements > RIPE Atlas > Probes > Probe #6111

FastVPS Eesti OU

General Information

Id 6111
Architecture centos
Firmware Version 4970
Router Type None
Shared Publicly Yes
User Tags
System Tags Anchor Resolves A Correctly Resolves AAAA Correctly IPv4 Works IPv6 Works IPv4 Capable IPv6 Capable IPv6 Stable 30d IPv6 Stable 1d IPv4 Stable 30d IPv4 Stable 90d IPv6 Stable 90d IPv4 Stable 1d V2 Soekris

Connection & Traffic

Connected Time
2 months, 1 week

Anchor Details

Hostname: ee-jvi-as198068
FQDN: ee-jvi-as198068.anchors.atlas.ripe.net

Anchor Mesh Measurements:
Type IPv4 IPv6 Comparison
Ping 1878009 (580 anchors) 1878011 (524 anchors) Compare IPv4/IPv6
Traceroute 1878008 (580 anchors) 1878010 (524 anchors) Compare IPv4/IPv6
HTTP 2841426 (579 anchors) 2841428 (524 anchors) Compare IPv4/IPv6
Probes Measurements towards this anchor:
Type IPv4 IPv6 Comparison
Ping 9181088 (388 probes) 9181091 (170 probes) Compare IPv4/IPv6
Traceroute 9181087 (388 probes) 9181090 (170 probes) Compare IPv4/IPv6
HTTP 9181089 (388 probes) 9181092 (170 probes) Compare IPv4/IPv6
Hosted by:

IPv4

Internet Address 159.253.17.197
Prefix 159.253.17.0/24
ASN 198068 (PAGM-AS - P.A.G.M. OU)

IPv6

Addresses 2a03:f480:1:2::4f/64
Prefix 2a03:f480:1::/48
ASN 198068 (PAGM-AS - P.A.G.M. OU)

Connection Information

Time Connected Percent
Last Week 7d 0h 0m 100.00%
Last Month 30d 0h 0m 100.00%
All Time 4y 232d 19h 28m 99.93%

Connection History (Showing only the last 25)

Connected (UTC) Connected for Disconnected (UTC) Disconnected for
2019-08-01 13:04:18 73d 22h 48m Still Connected
2019-07-12 00:18:37 20d 12h 32m 2019-08-01 12:50:46 0h 13m
2019-04-29 09:32:56 73d 14h 43m 2019-07-12 00:16:09 0h 2m
2019-04-15 09:52:03 13d 23h 40m 2019-04-29 09:32:47 0h 0m
2019-02-20 09:13:04 54d 0h 38m 2019-04-15 09:51:55 0h 0m
2018-12-21 07:32:49 61d 1h 40m 2019-02-20 09:12:55 0h 0m
2018-11-26 09:09:11 24d 22h 22m 2018-12-21 07:31:24 0h 1m
2018-11-15 22:15:23 10d 10h 53m 2018-11-26 09:09:02 0h 0m
2018-11-13 01:37:04 2d 20h 35m 2018-11-15 22:12:58 0h 2m
2018-10-21 21:22:57 22d 4h 12m 2018-11-13 01:34:57 0h 2m
2018-08-13 00:38:11 69d 20h 39m 2018-10-21 21:17:42 0h 5m
2018-07-02 09:03:02 41d 15h 32m 2018-08-13 00:35:44 0h 2m
2018-06-27 07:57:33 5d 1h 5m 2018-07-02 09:02:56 0h 0m
2018-06-26 04:01:42 1d 3h 54m 2018-06-27 07:56:38 0h 0m
2018-06-26 03:40:41 0h 18m 2018-06-26 03:59:09 0h 2m
2018-06-26 03:16:40 0h 21m 2018-06-26 03:38:08 0h 2m
2018-06-18 06:46:25 7d 20h 27m 2018-06-26 03:14:07 0h 2m
2018-06-17 18:20:20 0h 2m 2018-06-17 18:22:38 12h 23m
2018-06-09 17:42:40 7d 15h 55m 2018-06-17 09:37:40 8h 42m
2018-06-09 17:18:39 0h 22m 2018-06-09 17:41:35 0h 1m
2018-06-09 17:12:39 0h 5m 2018-06-09 17:18:36 0h 0m
2018-06-09 16:57:37 0h 11m 2018-06-09 17:08:42 0h 3m
2018-03-16 18:54:49 84d 22h 0m 2018-06-09 16:55:34 0h 2m
2018-03-16 18:18:47 0h 32m 2018-03-16 18:51:15 0h 3m
2018-01-10 12:24:18 65d 5h 53m 2018-03-16 18:17:30 0h 1m

Download Connection Logs

Select a date range

Graphs

Loading...

Log Downloads

Download URL Preview
 
  Measurement Target Start (UTC) Stop (UTC) Status
4 23068878 ua-zua-as31272.anchors.atlas.ripe.net 2019-10-14 04:25:31 One-off
6 23068402 us-hup-as63056.anchors.atlas.ripe.net 2019-10-14 02:25:30 One-off
4 23068401 us-hup-as63056.anchors.atlas.ripe.net 2019-10-14 02:25:30 One-off
4 23068111 ch-mus-as206291.anchors.atlas.ripe.net 2019-10-14 01:21:09 One-off
4 23068108 cs615.wpc.edgecastcdn.net 2019-10-14 01:20:17 One-off
4 23068107 cs640.wpc.edgecastcdn.net 2019-10-14 01:20:15 One-off
4 23068106 cs666.wpc.edgecastcdn.net 2019-10-14 01:20:12 One-off
4 23067852 fr-tin-as44788.anchors.atlas.ripe.net 2019-10-14 00:25:30 One-off
6 23067853 fr-tin-as44788.anchors.atlas.ripe.net 2019-10-14 00:25:30 One-off
6 23067277 fr-par-as20473.anchors.atlas.ripe.net 2019-10-13 22:25:31 One-off
4 23067276 fr-par-as20473.anchors.atlas.ripe.net 2019-10-13 22:25:31 One-off
6 23066942 nl-ams-as20473.anchors.atlas.ripe.net 2019-10-13 20:25:32 One-off
4 23066941 nl-ams-as20473.anchors.atlas.ripe.net 2019-10-13 20:25:32 One-off
6 23066684 uk-lon-as20473.anchors.atlas.ripe.net 2019-10-13 18:25:32 One-off
4 23066683 uk-lon-as20473.anchors.atlas.ripe.net 2019-10-13 18:25:31 One-off
4 23066647 speed.no.m247.ro 2019-10-13 17:27:58 One-off
4 23066648 91.189.179.2 2019-10-13 17:27:58 One-off
6 23066583 de-fra-as20473.anchors.atlas.ripe.net 2019-10-13 16:25:31 One-off
4 23066582 de-fra-as20473.anchors.atlas.ripe.net 2019-10-13 16:25:30 One-off
6 23066326 am-evn-as51225.anchors.atlas.ripe.net 2019-10-13 14:25:31 One-off
4 23066325 am-evn-as51225.anchors.atlas.ripe.net 2019-10-13 14:25:31 One-off
4 23066187 cloudharmony.com 2019-10-13 12:47:56 One-off
4 23066179 tata.atanar.net 2019-10-13 12:32:56 One-off
6 23066173 sa-ruh-as47794.anchors.atlas.ripe.net 2019-10-13 12:25:30 One-off
4 23066172 sa-ruh-as47794.anchors.atlas.ripe.net 2019-10-13 12:25:30 One-off